< < Back
Terminal Aerodrome Forecast


Current Version              Previous Versions:   1  2  3  4  5  6  7  8  9  

Terminal Aerodrome Forecast

088
FTUS44 KMRX 261720
TAFTYS
TAF
KTYS 261720Z 2618/2718 29005KT P6SM SCT010 OVC020
      TEMPO 2618/2620 BKN010
     FM270300 36008KT P6SM OVC010
     FM271500 01012KT P6SM OVC020=



Latest METAR

721
SAUS80 KWBC 270400 RRC
MTRTYS
METAR KTYS 270353Z 00000KT 8SM BKN060 00/M02 A3019 RMK AO2 SLP230
T00001017


USA.gov is the U.S. government's official web portal to all federal, state and local government web resources and services.